Time;durP1;ratioP1;P1;durP2;ratioP2;P2;SDS_P1;SDS_P2;PMS_P1;PMS_P2;Temp;Humidity;BMP_temperature;BMP_pressure;BME280_temperature;BME280_humidity;BME280_pressure;Samples;Min_cycle;Max_cycle;Signal;HPM_P1;HPM_P2
2020/12/02 00:01:39;;;;;;;13.50;9.25;;;;;;;1.78;78.56;96691.78;5052193;28;20060;-74
2020/12/02 00:04:11;;;;;;;12.27;8.23;;;;;;;1.76;78.83;96693.66;5052089;28;20064;-72
2020/12/02 00:06:41;;;;;;;11.02;7.28;;;;;;;1.75;78.60;96692.00;5052222;28;20048;-74
2020/12/02 00:09:12;;;;;;;13.05;8.45;;;;;;;1.73;78.55;96693.88;5052916;28;20059;-73
2020/12/02 00:11:39;;;;;;;13.32;8.82;;;;;;;1.75;78.87;96699.72;5052964;28;20063;-74
2020/12/02 00:14:09;;;;;;;14.68;8.90;;;;;;;1.74;78.44;96690.38;5052182;28;20053;-74
2020/12/02 00:16:35;;;;;;;14.05;8.50;;;;;;;1.70;78.75;96684.66;5051887;28;20053;-74
2020/12/02 00:19:02;;;;;;;13.07;8.68;;;;;;;1.68;78.52;96688.31;5052057;28;20064;-74
2020/12/02 00:21:31;;;;;;;12.63;8.23;;;;;;;1.68;78.67;96685.72;5052438;28;20414;-74
2020/12/02 00:23:58;;;;;;;14.05;8.88;;;;;;;1.66;78.39;96683.28;5052206;28;20064;-74
2020/12/02 00:26:25;;;;;;;14.73;9.65;;;;;;;1.67;78.52;96684.13;5052213;28;20068;-73
2020/12/02 00:28:52;;;;;;;14.73;9.38;;;;;;;1.66;78.70;96683.28;5051879;28;20045;-74
2020/12/02 00:31:20;;;;;;;14.73;8.80;;;;;;;1.64;78.62;96682.63;5051882;28;20056;-73
2020/12/02 00:33:48;;;;;;;14.63;9.13;;;;;;;1.62;78.73;96679.34;5052933;28;20053;-73
2020/12/02 00:36:15;;;;;;;15.13;9.27;;;;;;;1.60;78.57;96679.47;5062095;28;20523;-73
2020/12/02 00:38:42;;;;;;;13.27;8.13;;;;;;;1.58;78.36;96680.53;5063019;28;20491;-73
2020/12/02 00:41:10;;;;;;;12.88;8.02;;;;;;;1.56;78.18;96678.06;5064445;28;20499;-72
2020/12/02 00:43:36;;;;;;;13.10;7.90;;;;;;;1.56;78.46;96679.84;5059060;28;20454;-73
2020/12/02 00:46:04;;;;;;;13.75;8.57;;;;;;;1.56;78.24;96688.34;5052994;28;20053;-73
2020/12/02 00:48:34;;;;;;;13.68;8.68;;;;;;;1.55;78.47;96681.59;5053165;28;20052;-73
2020/12/02 00:51:03;;;;;;;13.82;8.52;;;;;;;1.56;78.78;96688.34;5056142;28;20049;-73
2020/12/02 00:53:31;;;;;;;11.48;8.00;;;;;;;1.57;78.53;96681.47;5056450;28;20052;-74
2020/12/02 00:55:59;;;;;;;13.00;8.15;;;;;;;1.57;78.58;96684.84;5056670;28;20045;-73
2020/12/02 00:58:41;;;;;;;13.77;9.02;;;;;;;1.57;78.32;96684.03;5055991;28;20053;-74
2020/12/02 01:01:12;;;;;;;15.40;9.73;;;;;;;1.60;78.32;96687.19;5056128;28;20053;-73
2020/12/02 01:03:40;;;;;;;14.32;8.48;;;;;;;1.61;78.10;96681.09;5056033;28;20056;-73
2020/12/02 01:06:10;;;;;;;13.38;8.80;;;;;;;1.61;78.61;96686.22;5055939;28;20053;-74
2020/12/02 01:08:39;;;;;;;14.80;9.70;;;;;;;1.62;78.53;96682.72;5055513;28;20056;-74
2020/12/02 01:11:12;;;;;;;14.95;9.13;;;;;;;1.63;78.31;96686.91;5054993;28;20450;-74
2020/12/02 01:13:40;;;;;;;12.75;8.07;;;;;;;1.67;78.31;96684.13;5055169;28;20052;-73
2020/12/02 01:16:08;;;;;;;13.32;8.00;;;;;;;1.72;78.29;96687.13;5054870;28;20071;-74
2020/12/02 01:18:35;;;;;;;14.63;9.27;;;;;;;1.74;78.34;96685.25;5054902;28;20049;-74
2020/12/02 01:21:15;;;;;;;12.80;8.50;;;;;;;1.74;78.48;96685.25;5054541;28;20066;-74
2020/12/02 01:23:46;;;;;;;13.85;8.00;;;;;;;1.75;78.48;96687.69;5054981;28;20049;-74
2020/12/02 01:26:13;;;;;;;14.75;8.70;;;;;;;1.75;78.10;96677.41;5055133;28;20049;-74
2020/12/02 01:28:39;;;;;;;13.25;8.88;;;;;;;1.75;78.33;96679.97;5054753;28;20060;-73
2020/12/02 01:31:07;;;;;;;11.00;7.88;;;;;;;1.75;77.96;96677.41;5054458;28;20055;-74
2020/12/02 01:33:34;;;;;;;11.75;8.07;;;;;;;1.78;78.03;96674.56;5054267;28;20423;-74
2020/12/02 01:36:00;;;;;;;9.90;6.63;;;;;;;1.80;78.11;96674.47;5054157;28;20519;-75
2020/12/02 01:38:36;;;;;;;10.27;7.22;;;;;;;1.81;77.80;96674.31;5054471;28;20053;-75
2020/12/02 01:41:03;;;;;;;9.80;6.80;;;;;;;1.81;77.70;96673.50;5054417;28;20049;-74
2020/12/02 01:43:30;;;;;;;11.77;6.70;;;;;;;1.81;77.49;96671.75;5054621;28;20052;-74
2020/12/02 01:46:17;;;;;;;9.65;6.47;;;;;;;1.79;77.19;96671.09;5054586;28;20052;-74
2020/12/02 01:49:04;;;;;;;12.23;7.40;;;;;;;1.80;77.07;96672.69;5054654;28;20439;-74
2020/12/02 01:51:48;;;;;;;11.13;7.28;;;;;;;1.81;77.07;96668.38;5054577;28;20510;-75
2020/12/02 01:54:21;;;;;;;11.65;7.65;;;;;;;1.82;77.12;96678.53;5054400;28;20049;-73
2020/12/02 01:56:52;;;;;;;10.27;7.20;;;;;;;1.83;77.19;96674.19;5054173;28;20056;-75
2020/12/02 01:59:27;;;;;;;10.10;6.63;;;;;;;1.84;76.81;96670.69;5054378;28;20056;-74
2020/12/02 02:02:05;;;;;;;9.40;6.65;;;;;;;1.83;76.88;96669.06;5053668;28;20069;-74
2020/12/02 02:04:45;;;;;;;9.23;6.13;;;;;;;1.83;76.42;96676.78;5054070;28;20060;-74
2020/12/02 02:07:16;;;;;;;12.10;7.53;;;;;;;1.85;76.90;96675.69;5053951;28;20424;-74
2020/12/02 02:09:46;;;;;;;11.45;7.28;;;;;;;1.86;77.04;96668.81;5054244;28;20056;-75
2020/12/02 02:12:45;;;;;;;9.85;6.88;;;;;;;1.88;76.81;96660.97;5054080;28;20052;-74
2020/12/02 02:15:28;;;;;;;9.82;6.82;;;;;;;1.87;76.43;96669.63;5053810;28;20049;-74
2020/12/02 02:17:56;;;;;;;10.60;7.65;;;;;;;1.84;76.56;96663.00;5099145;22;20067;-75
2020/12/02 02:20:28;;;;;;;10.75;7.05;;;;;;;1.84;76.75;96668.94;5093628;28;20438;-76
2020/12/02 02:22:55;;;;;;;12.00;8.25;;;;;;;1.87;77.24;96664.50;5094478;28;20062;-76
2020/12/02 02:25:22;;;;;;;10.93;7.55;;;;;;;1.87;76.73;96669.63;5094608;28;20054;-75
2020/12/02 02:27:51;;;;;;;11.32;7.80;;;;;;;1.86;76.66;96671.41;5111729;28;20417;-75
2020/12/02 02:30:17;;;;;;;13.88;9.02;;;;;;;1.84;76.58;96665.56;5114056;28;20062;-76
2020/12/02 02:32:46;;;;;;;11.70;7.93;;;;;;;1.82;76.83;96660.53;5114181;28;20058;-75
2020/12/02 02:35:14;;;;;;;11.85;8.05;;;;;;;1.80;76.59;96664.97;5114410;28;20520;-75
2020/12/02 02:37:43;;;;;;;13.70;8.93;;;;;;;1.79;76.59;96667.66;5114343;28;20089;-75
2020/12/02 02:40:12;;;;;;;12.52;8.38;;;;;;;1.77;76.92;96667.81;5114143;28;20055;-76
2020/12/02 02:42:41;;;;;;;11.95;8.15;;;;;;;1.78;77.49;96671.19;5114355;28;20285;-75
2020/12/02 02:45:11;;;;;;;14.27;8.57;;;;;;;1.81;78.33;96674.31;5114387;28;20056;-76
2020/12/02 02:47:38;;;;;;;13.48;9.68;;;;;;;1.83;77.82;96671.63;5114412;28;20075;-76
2020/12/02 02:50:08;;;;;;;13.52;8.90;;;;;;;1.83;77.62;96669.88;5114203;28;20047;-75
2020/12/02 02:52:35;;;;;;;17.00;9.98;;;;;;;1.84;77.36;96665.56;5138599;27;20031;-75
2020/12/02 02:55:01;;;;;;;14.82;9.50;;;;;;;1.84;77.02;96661.22;5137094;28;20264;-75
2020/12/02 02:57:28;;;;;;;16.42;10.63;;;;;;;1.83;76.93;96666.47;5127586;28;20570;-75
2020/12/02 02:59:54;;;;;;;14.27;9.27;;;;;;;1.83;77.06;96671.63;5114938;28;20493;-75
2020/12/02 03:02:22;;;;;;;14.85;9.07;;;;;;;1.81;76.85;96658.88;5134175;28;20043;-76
2020/12/02 03:04:48;;;;;;;15.30;9.88;;;;;;;1.79;77.36;96657.38;5135608;28;20460;-75
2020/12/02 03:07:17;;;;;;;16.42;10.40;;;;;;;1.79;77.35;96663.38;5135998;28;20588;-75
2020/12/02 03:09:44;;;;;;;14.55;9.68;;;;;;;1.83;77.08;96663.91;5126297;28;20047;-75
2020/12/02 03:12:11;;;;;;;15.13;9.43;;;;;;;1.83;76.83;96658.75;5113738;28;20047;-76
2020/12/02 03:14:42;;;;;;;16.50;10.00;;;;;;;1.83;77.07;96659.56;5113429;28;20051;-75
2020/12/02 03:17:11;;;;;;;16.00;9.38;;;;;;;1.84;77.01;96660.41;5114113;28;20055;-76
2020/12/02 03:19:42;;;;;;;17.58;10.50;;;;;;;1.83;76.70;96657.00;5113550;28;20055;-75
2020/12/02 03:22:11;;;;;;;13.38;9.45;;;;;;;1.87;77.51;96655.00;5113874;28;20051;-76
2020/12/02 03:24:39;;;;;;;16.67;10.48;;;;;;;1.89;77.25;96660.03;5113632;28;20048;-75
2020/12/02 03:27:05;;;;;;;17.60;10.10;;;;;;;1.89;76.33;96649.75;5113781;28;20047;-75
2020/12/02 03:29:32;;;;;;;19.38;11.00;;;;;;;1.89;76.72;96658.28;5113452;28;20048;-75
2020/12/02 03:31:59;;;;;;;17.15;10.23;;;;;;;1.89;76.93;96653.13;5113580;28;20505;-75
2020/12/02 03:34:25;;;;;;;19.63;10.95;;;;;;;1.88;76.84;96656.66;5113441;28;20066;-75
2020/12/02 03:36:53;;;;;;;17.48;10.57;;;;;;;1.88;76.72;96655.81;5113786;28;20047;-75
2020/12/02 03:39:19;;;;;;;18.58;10.65;;;;;;;1.88;76.82;96650.66;5112838;28;20050;-75
2020/12/02 03:41:45;;;;;;;20.23;12.27;;;;;;;1.82;76.75;96650.25;5127769;28;20054;-75
2020/12/02 03:44:12;;;;;;;29.88;14.68;;;;;;;1.77;76.93;96648.97;5134331;28;20031;-75
2020/12/02 03:46:39;;;;;;;24.02;12.52;;;;;;;1.74;76.81;96649.25;5133631;28;20107;-76
2020/12/02 03:49:06;;;;;;;24.45;11.55;;;;;;;1.70;76.84;96653.00;5113955;28;20047;-76
2020/12/02 03:51:34;;;;;;;23.58;11.80;;;;;;;1.65;76.83;96650.81;5113339;28;20043;-75
2020/12/02 03:54:02;;;;;;;22.80;11.68;;;;;;;1.63;77.33;96653.50;5112884;28;20452;-75
2020/12/02 03:56:28;;;;;;;22.70;12.10;;;;;;;1.62;77.34;96657.00;5113087;28;20047;-75
2020/12/02 03:58:55;;;;;;;22.35;11.82;;;;;;;1.62;77.13;96657.00;5113017;28;20051;-75
2020/12/02 04:01:21;;;;;;;20.55;11.63;;;;;;;1.62;77.65;96656.22;5112837;28;20048;-76
2020/12/02 04:03:48;;;;;;;23.67;12.48;;;;;;;1.61;77.47;96657.13;5112961;28;20047;-75
2020/12/02 04:06:15;;;;;;;25.20;11.38;;;;;;;1.62;76.91;96657.00;5112908;28;20059;-76
2020/12/02 04:08:43;;;;;;;23.05;12.32;;;;;;;1.63;77.41;96658.63;5113520;28;20424;-75
2020/12/02 04:11:12;;;;;;;22.80;11.73;;;;;;;1.65;77.68;96656.75;5113094;28;20054;-76
2020/12/02 04:13:40;;;;;;;18.27;10.43;;;;;;;1.68;77.24;96660.03;5112939;28;20046;-75
2020/12/02 04:16:07;;;;;;;17.75;10.77;;;;;;;1.68;76.77;96654.88;5112730;28;20425;-76
2020/12/02 04:18:33;;;;;;;19.75;10.77;;;;;;;1.67;76.97;96653.25;5112719;28;20054;-75
2020/12/02 04:21:00;;;;;;;17.40;9.70;;;;;;;1.63;76.43;96647.53;5112223;28;20051;-75
2020/12/02 04:23:26;;;;;;;19.67;10.10;;;;;;;1.56;76.21;96644.66;5113116;28;20055;-75
2020/12/02 04:25:53;;;;;;;16.23;10.18;;;;;;;1.48;76.34;96649.59;5115635;28;20047;-77
2020/12/02 04:28:20;;;;;;;20.85;10.32;;;;;;;1.44;76.55;96651.63;5114483;28;20053;-76
2020/12/02 04:30:48;;;;;;;18.50;10.23;;;;;;;1.43;76.83;96646.59;5112680;28;20043;-75
2020/12/02 04:33:15;;;;;;;17.77;10.82;;;;;;;1.42;76.57;96650.09;5114096;28;20066;-75
2020/12/02 04:35:42;;;;;;;17.90;10.60;;;;;;;1.42;76.70;96639.81;5129247;28;20048;-75
2020/12/02 04:38:08;;;;;;;22.30;12.85;;;;;;;1.42;76.59;96648.34;5128838;28;20054;-75
2020/12/02 04:40:37;;;;;;;24.55;12.07;;;;;;;1.43;76.66;96641.44;5129677;28;20065;-75
2020/12/02 04:43:12;;;;;;;21.80;12.00;;;;;;;1.46;76.74;96637.81;5128535;28;20052;-75
2020/12/02 04:45:40;;;;;;;25.02;13.98;;;;;;;1.46;76.80;96641.19;5115320;28;20485;-76
2020/12/02 04:48:11;;;;;;;26.17;13.88;;;;;;;1.44;76.88;96635.34;5113217;28;20047;-75
2020/12/02 04:50:38;;;;;;;27.15;14.35;;;;;;;1.44;76.96;96643.06;5112681;28;20134;-76
2020/12/02 04:53:11;;;;;;;25.98;13.10;;;;;;;1.44;77.43;96630.22;5112785;28;20058;-75
2020/12/02 04:55:38;;;;;;;32.90;15.65;;;;;;;1.44;76.94;96627.63;5112966;28;20101;-75
2020/12/02 04:58:18;;;;;;;27.65;13.77;;;;;;;1.44;77.44;96627.63;5112388;28;20048;-75
2020/12/02 05:00:45;;;;;;;30.48;16.05;;;;;;;1.42;77.40;96629.50;5112268;28;20058;-75
2020/12/02 05:03:15;;;;;;;29.65;15.23;;;;;;;1.41;77.38;96623.56;5123691;28;20051;-75
2020/12/02 05:05:43;;;;;;;26.90;14.75;;;;;;;1.41;77.33;96625.34;5129646;28;20052;-75
2020/12/02 05:08:17;;;;;;;32.60;15.25;;;;;;;1.41;77.42;96627.91;5127670;28;20058;-75
2020/12/02 05:10:44;;;;;;;37.20;17.60;;;;;;;1.39;77.33;96629.78;5128144;28;20047;-76
2020/12/02 05:13:11;;;;;;;33.40;15.70;;;;;;;1.35;77.32;96633.53;5121200;28;20051;-75
2020/12/02 05:15:38;;;;;;;29.52;15.25;;;;;;;1.31;77.62;96627.84;5112600;28;20134;-76
2020/12/02 05:18:17;;;;;;;31.48;16.08;;;;;;;1.30;77.45;96627.97;5112213;28;20047;-75
2020/12/02 05:20:44;;;;;;;32.38;16.65;;;;;;;1.28;77.63;96632.41;5113576;28;20047;-76
2020/12/02 05:23:17;;;;;;;30.08;15.68;;;;;;;1.28;77.91;96632.41;5131572;28;20050;-75
2020/12/02 05:25:44;;;;;;;;;;;;;;;1.31;77.67;96634.72;5131662;28;20054;-75
2020/12/02 05:28:21;;;;;;;30.23;15.85;;;;;;;1.30;77.45;96633.91;5131005;28;19920;-75
2020/12/02 05:30:48;;;;;;;31.10;15.13;;;;;;;1.27;77.43;96635.88;5115746;28;20497;-75
2020/12/02 05:33:22;;;;;;;34.17;15.88;;;;;;;1.24;77.67;96632.63;5112384;28;20044;-75
2020/12/02 05:35:51;;;;;;;28.02;15.10;;;;;;;1.23;77.73;96636.16;5112162;28;20047;-76
2020/12/02 05:38:26;;;;;;;33.83;16.17;;;;;;;1.22;77.48;96637.09;5115800;28;20148;-75
2020/12/02 05:40:54;;;;;;;35.75;17.10;;;;;;;1.24;77.76;96635.19;5115549;28;20044;-76
2020/12/02 05:43:27;;;;;;;34.20;16.52;;;;;;;1.27;77.97;96638.47;5115725;28;20394;-75
2020/12/02 05:45:54;;;;;;;37.75;18.33;;;;;;;1.29;77.62;96631.44;5115834;28;20047;-76
2020/12/02 05:48:25;;;;;;;33.30;16.58;;;;;;;1.30;77.69;96630.53;5115515;28;20043;-76
2020/12/02 05:50:54;;;;;;;35.45;17.35;;;;;;;1.29;77.28;96640.00;5102935;28;20040;-75
2020/12/02 05:53:26;;;;;;;36.67;18.63;;;;;;;1.27;77.56;96625.63;5095512;28;20063;-76
2020/12/02 05:55:54;;;;;;;37.17;18.38;;;;;;;1.27;77.42;96633.31;5095016;28;20134;-76
2020/12/02 05:58:22;;;;;;;37.47;18.55;;;;;;;1.27;77.62;96638.47;5095099;28;20044;-75
2020/12/02 06:00:49;;;;;;;37.03;18.85;;;;;;;1.25;77.52;96628.31;5094614;28;20051;-75
2020/12/02 06:03:18;;;;;;;38.55;18.65;;;;;;;1.27;77.71;96634.16;5094672;28;20051;-75
2020/12/02 06:05:46;;;;;;;38.58;19.27;;;;;;;1.27;77.34;96628.19;5094688;28;20054;-75
2020/12/02 06:08:33;;;;;;;41.92;19.80;;;;;;;1.29;77.60;96626.31;5094712;28;20075;-75
2020/12/02 06:11:21;;;;;;;37.65;18.30;;;;;;;1.30;77.70;96625.38;5094412;28;20489;-76
2020/12/02 06:13:51;;;;;;;40.53;19.65;;;;;;;1.31;77.67;96627.00;5094655;28;20139;-75
2020/12/02 06:16:29;;;;;;;39.55;18.50;;;;;;;1.30;77.52;96631.34;5094161;28;20044;-75
2020/12/02 06:19:03;;;;;;;34.25;17.88;;;;;;;1.31;77.28;96622.69;5094613;28;20387;-75
2020/12/02 06:21:39;;;;;;;36.97;19.58;;;;;;;1.31;77.22;96629.56;5094390;28;20052;-75
2020/12/02 06:24:08;;;;;;;41.95;20.50;;;;;;;1.30;77.39;96625.38;5095327;28;20040;-75
2020/12/02 06:26:36;;;;;;;46.08;20.17;;;;;;;1.30;77.99;96620.25;5094351;28;20052;-76
2020/12/02 06:29:06;;;;;;;35.75;17.33;;;;;;;1.28;77.86;96622.13;5094087;28;20059;-78
2020/12/02 06:31:33;;;;;;;41.25;18.75;;;;;;;1.29;78.67;96623.75;5094747;28;20044;-77
2020/12/02 06:34:06;;;;;;;38.38;19.75;;;;;;;1.29;78.42;96621.16;5094485;28;20060;-78
2020/12/02 06:36:36;;;;;;;45.70;19.70;;;;;;;1.27;77.76;96615.34;5094268;28;20052;-74
2020/12/02 06:39:25;;;;;;;40.30;19.23;;;;;;;1.27;78.66;96620.47;5094204;28;20048;-75
2020/12/02 06:41:51;;;;;;;41.22;20.35;;;;;;;1.28;78.01;96622.13;5093827;28;20047;-75
2020/12/02 06:44:58;;;;;;;41.53;20.02;;;;;;;1.29;78.02;96623.75;5112866;28;20063;-75
2020/12/02 06:47:28;;;;;;;41.13;20.45;;;;;;;1.31;77.98;96632.13;5117061;28;20054;-75
2020/12/02 06:50:06;;;;;;;41.40;21.33;;;;;;;1.31;77.45;96627.00;5116438;28;20048;-75
2020/12/02 06:52:36;;;;;;;36.65;18.58;;;;;;;1.32;77.69;96628.66;5094974;28;20414;-75
2020/12/02 06:55:13;;;;;;;44.35;20.05;;;;;;;1.32;77.28;96621.75;5106899;28;20072;-75
2020/12/02 06:57:41;;;;;;;43.80;19.60;;;;;;;1.35;77.55;96623.25;5112111;28;20048;-74
2020/12/02 07:00:13;;;;;;;39.72;19.42;;;;;;;1.35;77.51;96623.25;5116018;28;20059;-75
2020/12/02 07:02:43;;;;;;;35.17;17.20;;;;;;;1.37;77.14;96616.22;5116910;28;20040;-75
2020/12/02 07:05:18;;;;;;;34.25;17.35;;;;;;;1.38;77.51;96617.88;5099838;28;20071;-75
2020/12/02 07:07:46;;;;;;;38.13;18.88;;;;;;;1.39;77.47;96620.31;5093661;28;20055;-75
2020/12/02 07:10:19;;;;;;;34.38;17.73;;;;;;;1.42;77.28;96625.22;5093427;28;20051;-75
2020/12/02 07:12:46;;;;;;;35.17;17.92;;;;;;;1.45;77.23;96624.16;5093500;28;20048;-75
2020/12/02 07:15:14;;;;;;;36.28;18.50;;;;;;;1.48;77.09;96628.22;5093831;28;20438;-75
2020/12/02 07:17:42;;;;;;;25.17;13.40;;;;;;;1.46;76.88;96618.06;5092940;28;20044;-74
2020/12/02 07:20:14;;;;;;;28.30;14.77;;;;;;;1.44;76.47;96625.06;5093165;28;20504;-75
2020/12/02 07:22:49;;;;;;;29.23;14.85;;;;;;;1.44;77.18;96627.63;5093074;28;20044;-75
2020/12/02 07:25:16;;;;;;;30.85;16.83;;;;;;;1.46;76.75;96619.81;5093100;28;20052;-74
2020/12/02 07:27:45;;;;;;;26.55;14.15;;;;;;;1.46;76.55;96628.34;5093219;28;20051;-75
2020/12/02 07:30:29;;;;;;;19.90;11.07;;;;;;;1.45;75.85;96629.28;5092803;28;20062;-75
2020/12/02 07:32:55;;;;;;;18.65;11.40;;;;;;;1.42;76.08;96635.50;5102585;28;20047;-75
2020/12/02 07:35:23;;;;;;;19.92;10.98;;;;;;;1.39;76.06;96632.34;5113534;28;20055;-74
2020/12/02 07:38:05;;;;;;;21.30;11.60;;;;;;;1.33;76.08;96625.94;5112473;28;20070;-75
2020/12/02 07:40:36;;;;;;;21.98;11.50;;;;;;;1.30;76.19;96627.97;5113172;28;20048;-75
2020/12/02 07:43:05;;;;;;;21.65;12.52;;;;;;;1.27;76.12;96635.88;5112975;28;20410;-75
2020/12/02 07:45:33;;;;;;;27.60;13.63;;;;;;;1.24;76.03;96635.19;5126864;27;20048;-75
2020/12/02 07:48:04;;;;;;;24.38;13.93;;;;;;;1.23;76.12;96638.72;5131929;28;20067;-74
2020/12/02 07:50:33;;;;;;;25.60;13.32;;;;;;;1.25;76.05;96633.47;5132471;28;20044;-74
2020/12/02 07:53:16;;;;;;;25.20;12.60;;;;;;;1.22;75.67;96634.53;5114195;28;20047;-75
2020/12/02 07:55:45;;;;;;;22.60;12.25;;;;;;;1.20;75.73;96638.97;5113454;28;20055;-74
2020/12/02 07:58:14;;;;;;;25.20;14.02;;;;;;;1.20;76.03;96636.41;5114221;28;20040;-74
2020/12/02 08:00:43;;;;;;;30.45;14.82;;;;;;;1.18;76.14;96635.72;5113193;28;20055;-75
2020/12/02 08:03:29;;;;;;;32.58;16.00;;;;;;;1.17;75.98;96636.63;5113298;28;20047;-75
2020/12/02 08:06:04;;;;;;;26.77;14.10;;;;;;;1.19;76.33;96636.53;5113282;28;20063;-75
2020/12/02 08:08:30;;;;;;;26.25;13.27;;;;;;;1.19;76.41;96629.63;5113190;28;20050;-75
2020/12/02 08:11:07;;;;;;;29.17;16.15;;;;;;;1.21;76.42;96626.94;5114419;28;20071;-75
2020/12/02 08:13:35;;;;;;;31.52;13.63;;;;;;;1.22;76.39;96619.13;5114476;28;20047;-75
2020/12/02 08:16:03;;;;;;;29.05;13.85;;;;;;;1.23;75.74;96631.00;5111140;28;20075;-75
2020/12/02 08:18:32;;;;;;;26.10;13.02;;;;;;;1.21;75.53;96619.22;5111479;28;20040;-75
2020/12/02 08:21:14;;;;;;;23.58;11.60;;;;;;;1.18;75.88;96620.28;5112615;28;20515;-75
2020/12/02 08:23:51;;;;;;;27.17;13.88;;;;;;;1.19;75.58;96614.19;5112495;28;20460;-75
2020/12/02 08:26:23;;;;;;;23.17;12.68;;;;;;;1.19;76.09;96616.78;5112694;28;20044;-75
2020/12/02 08:28:52;;;;;;;23.55;12.50;;;;;;;1.20;75.82;96620.16;5112217;28;20048;-75
2020/12/02 08:31:25;;;;;;;26.90;12.80;;;;;;;1.21;76.00;96621.81;5107993;22;20060;-79
2020/12/02 08:34:13;;;;;;;27.33;13.95;;;;;;;1.24;76.12;96624.09;5094533;28;20048;-75
2020/12/02 08:36:44;;;;;;;23.60;12.85;;;;;;;1.24;76.12;96624.91;5095256;28;20048;-75
2020/12/02 08:39:11;;;;;;;23.48;12.32;;;;;;;1.24;76.41;96627.50;5093772;28;20044;-76
2020/12/02 08:41:41;;;;;;;22.00;11.75;;;;;;;1.23;75.92;96620.72;5110475;28;20047;-76
2020/12/02 08:44:09;;;;;;;22.70;12.60;;;;;;;1.22;75.63;96616.53;5112001;28;20052;-77
2020/12/02 08:46:48;;;;;;;23.65;12.65;;;;;;;1.21;75.76;96614.91;5113192;28;20050;-76
2020/12/02 08:49:14;;;;;;;26.63;14.23;;;;;;;1.21;75.47;96617.47;5115803;28;20055;-75
2020/12/02 08:51:44;;;;;;;23.58;12.48;;;;;;;1.19;75.34;96608.25;5115125;28;20499;-75
2020/12/02 08:54:13;;;;;;;25.50;14.18;;;;;;;1.19;75.52;96618.53;5113249;28;20428;-77
2020/12/02 08:56:41;;;;;;;28.38;14.88;;;;;;;1.18;75.97;96617.72;5112584;28;20063;-76
2020/12/02 08:59:09;;;;;;;28.67;14.85;;;;;;;1.19;75.71;96614.19;5112461;28;20040;-76
2020/12/02 09:01:36;;;;;;;33.33;14.95;;;;;;;1.20;75.81;96625.28;5112315;28;20052;-76
2020/12/02 09:04:03;;;;;;;36.33;15.20;;;;;;;1.19;76.01;96616.78;5111175;28;20051;-76
2020/12/02 09:06:30;;;;;;;26.95;15.68;;;;;;;1.20;76.25;96613.28;5112514;28;20059;-76
2020/12/02 09:08:57;;;;;;;46.45;17.33;;;;;;;1.21;75.98;96614.09;5111978;28;20062;-77
2020/12/02 09:11:29;;;;;;;45.25;16.17;;;;;;;1.21;75.86;96609.75;5114951;28;20051;-77
2020/12/02 09:13:57;;;;;;;57.25;18.52;;;;;;;1.22;75.85;96606.28;5112719;28;20059;-76
2020/12/02 09:16:28;;;;;;;68.90;19.98;;;;;;;1.23;75.64;96600.19;5095493;28;20052;-76
2020/12/02 09:18:55;;;;;;;63.13;19.30;;;;;;;1.24;75.31;96604.38;5095451;28;20056;-77
2020/12/02 09:21:24;;;;;;;59.97;18.27;;;;;;;1.24;76.18;96606.94;5095212;28;20047;-77
2020/12/02 09:23:51;;;;;;;56.33;19.10;;;;;;;1.27;76.03;96612.75;5108348;28;20075;-77
2020/12/02 09:26:20;;;;;;;51.38;16.42;;;;;;;1.26;75.71;96600.88;5115799;28;20066;-77
2020/12/02 09:28:47;;;;;;;50.40;17.02;;;;;;;1.26;75.52;96598.28;5115704;28;20040;-76
2020/12/02 09:31:15;;;;;;;80.93;22.77;;;;;;;1.27;75.78;96587.06;5115530;28;20043;-76
2020/12/02 09:33:42;;;;;;;67.55;18.35;;;;;;;1.27;75.59;96585.34;5115390;28;20134;-76
2020/12/02 09:36:09;;;;;;;30.67;16.00;;;;;;;1.28;75.80;96575.88;5115624;28;20068;-76
2020/12/02 09:38:36;;;;;;;32.42;16.10;;;;;;;1.24;75.60;96576.09;5115642;28;20052;-77
2020/12/02 09:41:25;;;;;;;28.00;15.00;;;;;;;1.24;75.26;96570.16;5115425;28;20048;-77
2020/12/02 09:44:09;;;;;;;37.40;15.45;;;;;;;1.22;75.38;96572.03;5115149;28;20047;-77
2020/12/02 09:46:41;;;;;;;30.55;15.50;;;;;;;1.21;76.12;96571.22;5115349;28;20138;-77
2020/12/02 09:49:08;;;;;;;69.47;18.52;;;;;;;1.21;75.78;96566.06;5119533;28;20059;-76
2020/12/02 09:51:36;;;;;;;35.38;15.40;;;;;;;1.21;75.37;96565.28;5118800;28;20051;-77
2020/12/02 09:54:02;;;;;;;33.58;15.93;;;;;;;1.16;75.37;96562.25;5120907;28;20048;-76
2020/12/02 09:56:30;;;;;;;29.10;13.35;;;;;;;1.10;75.46;96553.28;5124635;28;20054;-77
2020/12/02 09:58:57;;;;;;;30.42;14.57;;;;;;;1.04;74.99;96548.63;5115825;28;20048;-77
2020/12/02 10:01:32;;;;;;;30.60;14.27;;;;;;;1.01;75.64;96544.56;5115897;28;20412;-77
2020/12/02 10:04:24;;;;;;;28.20;12.38;;;;;;;1.01;75.42;96536.06;5115477;28;20051;-76
2020/12/02 10:07:12;;;;;;;26.08;14.15;;;;;;;1.03;76.07;96536.75;5115397;28;20044;-76
2020/12/02 10:09:51;;;;;;;25.70;13.02;;;;;;;1.06;75.44;96539.06;5114558;27;20052;-77
2020/12/02 10:12:32;;;;;;;26.05;14.20;;;;;;;1.08;75.61;96539.75;5115295;28;20043;-76
2020/12/02 10:15:13;;;;;;;24.92;12.65;;;;;;;1.08;75.39;96537.19;5103305;28;20055;-76
2020/12/02 10:17:53;;;;;;;22.48;11.77;;;;;;;1.06;74.87;96536.50;5094662;28;20468;-77
2020/12/02 10:20:30;;;;;;;22.05;11.55;;;;;;;1.02;74.81;96525.63;5094619;28;20044;-77
2020/12/02 10:23:11;;;;;;;24.80;11.38;;;;;;;0.96;74.74;96521.03;5093982;28;20048;-77
2020/12/02 10:26:13;;;;;;;22.90;11.38;;;;;;;0.95;75.00;96528.84;5099662;28;20063;-77
2020/12/02 10:28:47;;;;;;;25.38;12.88;;;;;;;0.95;75.28;96518.56;5090183;28;20056;-76
2020/12/02 10:31:19;;;;;;;24.83;12.60;;;;;;;0.95;74.86;96524.50;5114998;28;20071;-78
2020/12/02 10:33:52;;;;;;;;;;;;;;;0.97;75.22;96516.69;5112469;28;20419;-76
2020/12/02 10:36:22;;;;;;;20.92;11.18;;;;;;;0.92;74.46;96524.78;5095647;28;19965;-76
2020/12/02 10:38:51;;;;;;;21.08;10.98;;;;;;;0.88;74.51;96518.25;5095359;28;20048;-77
2020/12/02 10:41:25;;;;;;;21.20;11.48;;;;;;;0.83;74.07;96512.66;5094638;28;20052;-77
2020/12/02 10:44:02;;;;;;;22.55;10.65;;;;;;;0.79;74.25;96506.97;5103377;28;20051;-76
2020/12/02 10:46:48;;;;;;;21.10;10.27;;;;;;;0.79;74.19;96506.97;5114688;28;20048;-77
2020/12/02 10:49:25;;;;;;;19.10;10.02;;;;;;;0.82;74.06;96511.03;5114560;28;20103;-77
2020/12/02 10:51:55;;;;;;;19.63;10.25;;;;;;;0.83;73.95;96507.50;5115783;28;20052;-76
2020/12/02 10:54:24;;;;;;;20.92;10.15;;;;;;;0.82;74.18;96508.47;5126725;28;20043;-76
2020/12/02 10:56:56;;;;;;;22.95;11.10;;;;;;;0.82;74.07;96504.13;5115707;28;20059;-77
2020/12/02 10:59:24;;;;;;;20.43;10.67;;;;;;;0.85;74.20;96489.41;5113976;28;20048;-77
2020/12/02 11:01:52;;;;;;;18.17;9.88;;;;;;;0.87;74.32;96488.34;5114427;28;20055;-76
2020/12/02 11:04:21;;;;;;;21.35;10.52;;;;;;;0.91;73.90;96483.78;5114834;28;20054;-77
2020/12/02 11:07:02;;;;;;;20.23;11.20;;;;;;;0.89;73.46;96475.41;5114628;28;20043;-78
2020/12/02 11:09:42;;;;;;;19.75;10.43;;;;;;;0.89;73.55;96472.81;5113926;28;20055;-76
2020/12/02 11:12:24;;;;;;;20.55;10.55;;;;;;;0.90;73.67;96474.47;5113892;28;20059;-76
2020/12/02 11:15:21;;;;;;;18.20;10.05;;;;;;;0.87;72.83;96470.38;5113883;28;20044;-77
2020/12/02 11:18:07;;;;;;;17.65;9.88;;;;;;;0.85;72.84;96471.44;5113085;28;20047;-77
2020/12/02 11:20:44;;;;;;;20.80;10.98;;;;;;;0.78;72.68;96471.94;5114217;28;20047;-77
2020/12/02 11:23:22;;;;;;;19.65;11.00;;;;;;;0.75;72.87;96467.06;5113662;28;20053;-77
2020/12/02 11:25:58;;;;;;;22.00;10.82;;;;;;;0.69;72.73;96462.41;5113632;28;20054;-77
2020/12/02 11:28:24;;;;;;;21.75;11.30;;;;;;;0.63;72.97;96457.78;5113273;28;20054;-76
2020/12/02 11:30:51;;;;;;;24.02;12.50;;;;;;;0.60;73.22;96451.13;5112580;28;20048;-77
2020/12/02 11:33:37;;;;;;;21.08;10.68;;;;;;;0.60;72.77;96447.75;5112823;28;20054;-76
2020/12/02 11:36:19;;;;;;;22.45;12.25;;;;;;;0.62;73.25;96443.31;5113161;28;20058;-78
2020/12/02 11:38:57;;;;;;;20.67;10.40;;;;;;;0.65;73.35;96439.69;5113082;28;20406;-77
2020/12/02 11:41:32;;;;;;;20.77;10.75;;;;;;;0.66;73.23;96442.13;5113074;28;20054;-77
2020/12/02 11:44:10;;;;;;;23.73;11.73;;;;;;;0.68;73.18;96449.69;5113120;28;20051;-77
2020/12/02 11:46:38;;;;;;;23.75;12.35;;;;;;;0.71;73.28;96439.19;5113328;28;20116;-77
2020/12/02 11:49:14;;;;;;;24.65;12.95;;;;;;;0.71;73.59;96434.88;5112345;28;20528;-77